Time;durP1;ratioP1;P1;durP2;ratioP2;P2;SDS_P1;SDS_P2;PMS_P1;PMS_P2;Temp;Humidity;BMP_temperature;BMP_pressure;BME280_temperature;BME280_humidity;BME280_pressure;Samples;Min_cycle;Max_cycle;Signal;HPM_P1;HPM_P2
2022/08/05 00:02:20;;;;;;;36.47;12.00;;;;;;;-146.72;100.00;64895.28;5072938;28;20445;-73
2022/08/05 00:04:48;;;;;;;20.80;10.70;;;;;;;-146.72;100.00;64895.28;5070564;28;20964;-72
2022/08/05 00:07:22;;;;;;;17.53;10.30;;;;;;;-146.72;100.00;64895.28;5089374;28;20498;-73
2022/08/05 00:10:09;;;;;;;22.13;10.23;;;;;;;-146.72;100.00;64895.28;5076756;28;20416;-72
2022/08/05 00:12:36;;;;;;;19.53;10.43;;;;;;;-146.72;100.00;64895.28;5070300;28;20531;-73
2022/08/05 00:15:23;;;;;;;17.43;9.33;;;;;;;-146.72;100.00;64895.28;5070234;28;20478;-72
2022/08/05 00:18:10;;;;;;;23.60;9.37;;;;;;;-146.72;100.00;64895.28;5085003;28;20534;-72
2022/08/05 00:20:49;;;;;;;26.70;9.90;;;;;;;-146.72;100.00;64895.28;5075135;28;20439;-73
2022/08/05 00:23:16;;;;;;;19.60;10.30;;;;;;;-146.72;100.00;64895.28;5090635;28;20804;-72
2022/08/05 00:26:03;;;;;;;21.57;10.30;;;;;;;-146.72;100.00;64895.28;5081244;28;20430;-73
2022/08/05 00:28:30;;;;;;;15.50;9.50;;;;;;;-146.72;100.00;64895.28;5083233;28;20436;-72
2022/08/05 00:30:59;;;;;;;15.50;10.90;;;;;;;-146.72;100.00;64895.28;5080130;28;20419;-72
2022/08/05 00:33:33;;;;;;;15.43;9.10;;;;;;;-146.72;100.00;64895.28;5070061;28;20432;-72
2022/08/05 00:36:21;;;;;;;24.17;10.60;;;;;;;-146.72;100.00;64895.28;5067517;28;20460;-72
2022/08/05 00:39:08;;;;;;;22.10;9.97;;;;;;;-146.72;100.00;64895.28;5070272;28;20513;-72
2022/08/05 00:41:44;;;;;;;18.23;10.53;;;;;;;-146.72;100.00;64895.28;5071487;28;20421;-72
2022/08/05 00:44:22;;;;;;;13.20;8.57;;;;;;;-146.72;100.00;64895.28;5087913;28;20508;-71
2022/08/05 00:46:57;;;;;;;18.03;10.67;;;;;;;-146.72;100.00;64895.28;5079072;28;20444;-72
2022/08/05 00:49:27;;;;;;;20.30;8.27;;;;;;;-146.72;100.00;64895.28;5066781;28;20490;-72
2022/08/05 00:51:59;;;;;;;17.10;9.10;;;;;;;-146.72;100.00;64895.28;5069625;28;20523;-72
2022/08/05 00:54:25;;;;;;;15.97;9.03;;;;;;;-146.72;100.00;64895.28;5059020;28;20484;-72
2022/08/05 00:56:55;;;;;;;18.83;9.50;;;;;;;-146.72;100.00;64895.28;5091192;28;20826;-73
2022/08/05 00:59:22;;;;;;;12.47;9.30;;;;;;;-146.72;100.00;64895.28;5082777;28;20459;-73
2022/08/05 01:01:49;;;;;;;15.90;9.20;;;;;;;-146.72;100.00;64895.28;5070782;28;20951;-73
2022/08/05 01:04:17;;;;;;;18.10;8.70;;;;;;;-146.72;100.00;64895.28;5069627;28;20440;-73
2022/08/05 01:06:52;;;;;;;9.10;7.93;;;;;;;-146.72;100.00;64895.28;5053762;28;20464;-73
2022/08/05 01:09:20;;;;;;;9.90;9.00;;;;;;;-146.72;100.00;64895.28;5069582;28;20444;-73
2022/08/05 01:11:51;;;;;;;14.80;9.00;;;;;;;-146.72;100.00;64895.28;5070924;28;20432;-73
2022/08/05 01:14:39;;;;;;;17.03;9.93;;;;;;;-146.72;100.00;64895.28;5060043;28;20430;-73
2022/08/05 01:17:48;;;;;;;17.30;9.50;;;;;;;-146.72;100.00;64895.28;5068732;28;20463;-73
2022/08/05 01:20:22;;;;;;;13.30;9.37;;;;;;;-146.72;100.00;64895.28;5041600;28;20428;-73
2022/08/05 01:22:52;;;;;;;16.50;10.73;;;;;;;-146.72;100.00;64895.28;5082890;28;20411;-73
2022/08/05 01:25:45;;;;;;;12.73;8.70;;;;;;;-146.72;100.00;64895.28;5073414;28;20431;-73
2022/08/05 01:28:42;;;;;;;9.13;8.07;;;;;;;-146.72;100.00;64895.28;5073940;28;20883;-73
2022/08/05 01:31:40;;;;;;;10.93;8.70;;;;;;;-146.72;100.00;64895.28;5091804;28;20474;-73
2022/08/05 01:34:32;;;;;;;19.87;9.33;;;;;;;-146.72;100.00;64895.28;5077957;28;20520;-73
2022/08/05 01:37:09;;;;;;;15.00;8.93;;;;;;;-146.72;100.00;64895.28;5078979;28;20535;-72
2022/08/05 01:39:55;;;;;;;21.57;9.97;;;;;;;-146.72;100.00;64895.28;5089697;28;20467;-73
2022/08/05 01:42:26;;;;;;;12.27;10.07;;;;;;;-146.72;100.00;64895.28;5081163;28;20440;-72
2022/08/05 01:44:57;;;;;;;15.70;9.07;;;;;;;-146.72;100.00;64895.28;5073100;28;20474;-72
2022/08/05 01:47:27;;;;;;;12.83;9.30;;;;;;;-146.72;100.00;64895.28;5073137;28;20440;-73
2022/08/05 01:50:09;;;;;;;12.37;9.07;;;;;;;-146.72;100.00;64895.28;5074379;28;20486;-73
2022/08/05 01:52:44;;;;;;;21.67;10.00;;;;;;;-146.72;100.00;64895.28;5073030;28;20431;-73
2022/08/05 01:55:19;;;;;;;13.87;9.40;;;;;;;-146.72;100.00;64895.28;5074289;28;20415;-73
2022/08/05 01:57:49;;;;;;;19.00;10.20;;;;;;;-146.72;100.00;64895.28;5089577;28;20468;-73
2022/08/05 02:00:38;;;;;;;20.10;10.37;;;;;;;-146.72;100.00;64895.28;5074074;28;20526;-73
2022/08/05 02:03:15;;;;;;;18.23;9.43;;;;;;;-146.72;100.00;64895.28;5067816;28;20442;-73
2022/08/05 02:05:54;;;;;;;20.23;10.83;;;;;;;-146.72;100.00;64895.28;5067992;28;20439;-73
2022/08/05 02:08:29;;;;;;;12.50;10.07;;;;;;;-146.72;100.00;64895.28;5090690;28;20419;-73
2022/08/05 02:11:05;;;;;;;18.73;9.67;;;;;;;-146.72;100.00;64895.28;5065715;28;20439;-73
2022/08/05 02:13:43;;;;;;;10.67;9.47;;;;;;;-146.72;100.00;64895.28;5063238;28;20538;-72
2022/08/05 02:16:31;;;;;;;18.23;10.33;;;;;;;-146.72;100.00;64895.28;5080304;28;20472;-72
2022/08/05 02:19:04;;;;;;;11.73;10.57;;;;;;;-146.72;100.00;64895.28;5101153;28;20456;-72
2022/08/05 02:21:38;;;;;;;15.90;10.37;;;;;;;-146.72;100.00;64895.28;5072262;28;20489;-72
2022/08/05 02:24:18;;;;;;;18.40;9.43;;;;;;;-146.72;100.00;64895.28;5072413;28;20420;-72
2022/08/05 02:26:53;;;;;;;10.77;9.63;;;;;;;-146.72;100.00;64895.28;5075345;28;20871;-72
2022/08/05 02:29:25;;;;;;;14.27;9.67;;;;;;;-146.72;100.00;64895.28;5092636;28;20453;-72
2022/08/05 02:32:14;;;;;;;10.47;9.50;;;;;;;-146.72;100.00;64895.28;5063540;28;20417;-72
2022/08/05 02:34:59;;;;;;;11.50;10.00;;;;;;;-146.72;100.00;64895.28;5057526;28;20439;-72
2022/08/05 02:37:37;;;;;;;10.53;9.70;;;;;;;-146.72;100.00;64895.28;5085610;28;20463;-72
2022/08/05 02:40:06;;;;;;;13.87;10.23;;;;;;;-146.72;100.00;64895.28;5079694;28;20514;-72
2022/08/05 02:42:36;;;;;;;10.93;10.03;;;;;;;-146.72;100.00;64895.28;5061356;28;20432;-72
2022/08/05 02:45:05;;;;;;;11.60;10.47;;;;;;;-146.72;100.00;64895.28;5083372;28;20437;-72
2022/08/05 02:47:35;;;;;;;10.83;9.80;;;;;;;-146.72;100.00;64895.28;5088298;28;20444;-72
2022/08/05 02:50:23;;;;;;;11.63;10.50;;;;;;;-146.72;100.00;64895.28;5093586;28;20514;-72
2022/08/05 02:52:51;;;;;;;10.10;9.30;;;;;;;-146.72;100.00;64895.28;5078550;28;20485;-72
2022/08/05 02:55:19;;;;;;;11.33;10.23;;;;;;;-146.72;100.00;64895.28;5061592;28;20440;-72
2022/08/05 02:58:07;;;;;;;12.37;10.53;;;;;;;-146.72;100.00;64895.28;5048203;28;20467;-72
2022/08/05 03:00:39;;;;;;;9.80;8.97;;;;;;;-146.72;100.00;64895.28;5078771;28;20440;-72
2022/08/05 03:03:13;;;;;;;20.13;9.83;;;;;;;-146.72;100.00;64895.28;5079433;28;20453;-72
2022/08/05 03:05:42;;;;;;;10.73;9.63;;;;;;;-146.72;100.00;64895.28;5093343;28;20432;-72
2022/08/05 03:08:30;;;;;;;9.63;8.73;;;;;;;-146.72;100.00;64895.28;5071228;28;20531;-73
2022/08/05 03:10:56;;;;;;;15.30;11.20;;;;;;;-146.72;100.00;64895.28;5080195;28;20485;-73
2022/08/05 03:13:43;;;;;;;13.70;9.77;;;;;;;-146.72;100.00;64895.28;5106108;28;20503;-72
2022/08/05 03:16:28;;;;;;;10.37;9.37;;;;;;;-146.72;100.00;64895.28;5064050;28;20452;-72
2022/08/05 03:18:57;;;;;;;10.77;9.33;;;;;;;-146.72;100.00;64895.28;5091312;28;20919;-72
2022/08/05 03:21:24;;;;;;;11.10;9.93;;;;;;;-146.72;100.00;64895.28;5076685;28;20440;-72
2022/08/05 03:23:59;;;;;;;9.73;8.90;;;;;;;-146.72;100.00;64895.28;5071203;28;20439;-72
2022/08/05 03:26:28;;;;;;;11.07;9.90;;;;;;;-146.72;100.00;64895.28;5084133;28;21000;-72
2022/08/05 03:28:57;;;;;;;10.10;9.10;;;;;;;-146.72;100.00;64895.28;5077368;28;20879;-72
2022/08/05 03:31:25;;;;;;;14.43;9.63;;;;;;;-146.72;100.00;64895.28;5072939;28;20462;-72
2022/08/05 03:34:11;;;;;;;11.70;8.97;;;;;;;-146.72;100.00;64895.28;5086999;28;20436;-72
2022/08/05 03:36:39;;;;;;;10.53;9.63;;;;;;;-146.72;100.00;64895.28;5077780;28;20452;-72
2022/08/05 03:39:07;;;;;;;14.10;9.27;;;;;;;-146.72;100.00;64895.28;5078867;28;20452;-72
2022/08/05 03:41:38;;;;;;;9.97;9.07;;;;;;;-146.72;100.00;64895.28;5066679;28;20490;-72
2022/08/05 03:44:12;;;;;;;11.00;9.23;;;;;;;-146.72;100.00;64895.28;5071882;28;20927;-72
2022/08/05 03:46:45;;;;;;;11.90;10.03;;;;;;;-146.72;100.00;64895.28;5055053;28;20503;-72
2022/08/05 03:49:14;;;;;;;10.30;9.50;;;;;;;-146.72;100.00;64895.28;5074732;28;20880;-72
2022/08/05 03:51:58;;;;;;;10.10;9.10;;;;;;;-146.72;100.00;64895.28;5080067;28;20478;-72
2022/08/05 03:55:10;;;;;;;11.97;8.63;;;;;;;-146.72;100.00;64895.28;5070540;28;20434;-72
2022/08/05 03:57:58;;;;;;;14.73;11.03;;;;;;;-146.72;100.00;64895.28;5090645;28;20474;-72
2022/08/05 04:00:30;;;;;;;12.80;10.10;;;;;;;-146.72;100.00;64895.28;5074707;28;20476;-72
2022/08/05 04:03:03;;;;;;;10.77;9.70;;;;;;;-146.72;100.00;64895.28;5081613;28;20424;-72
2022/08/05 04:05:33;;;;;;;10.93;9.43;;;;;;;-146.72;100.00;64895.28;5086080;28;20914;-72
2022/08/05 04:08:03;;;;;;;11.43;9.57;;;;;;;-146.72;100.00;64895.28;5070024;28;20492;-72
2022/08/05 04:10:42;;;;;;;12.23;10.33;;;;;;;-146.72;100.00;64895.28;5070568;28;20511;-72
2022/08/05 04:13:10;;;;;;;15.63;10.00;;;;;;;-146.72;100.00;64895.28;5084191;28;20431;-72
2022/08/05 04:15:37;;;;;;;13.57;11.07;;;;;;;-146.72;100.00;64895.28;5066316;28;20490;-72
2022/08/05 04:18:22;;;;;;;10.07;9.00;;;;;;;-146.72;100.00;64895.28;5087888;28;20459;-72
2022/08/05 04:20:55;;;;;;;11.63;10.40;;;;;;;-146.72;100.00;64895.28;5090664;28;20903;-72
2022/08/05 04:23:25;;;;;;;9.67;8.90;;;;;;;-146.72;100.00;64895.28;5076722;28;20862;-72
2022/08/05 04:26:15;;;;;;;11.37;10.20;;;;;;;-146.72;100.00;64895.28;5076973;28;20533;-72
2022/08/05 04:28:43;;;;;;;15.40;11.17;;;;;;;-146.72;100.00;64895.28;5082116;28;20994;-72
2022/08/05 04:31:19;;;;;;;10.87;10.00;;;;;;;-146.72;100.00;64895.28;5083539;28;20520;-72
2022/08/05 04:33:46;;;;;;;12.97;11.10;;;;;;;-146.72;100.00;64895.28;5081090;28;20456;-72
2022/08/05 04:36:32;;;;;;;13.73;10.10;;;;;;;-146.72;100.00;64895.28;5080675;28;20439;-72
2022/08/05 04:39:11;;;;;;;12.63;10.00;;;;;;;-146.72;100.00;64895.28;5064085;28;20472;-72
2022/08/05 04:41:38;;;;;;;11.33;9.27;;;;;;;-146.72;100.00;64895.28;5069160;28;20490;-72
2022/08/05 04:44:06;;;;;;;12.90;9.90;;;;;;;-146.72;100.00;64895.28;5070958;28;20494;-72
2022/08/05 04:46:36;;;;;;;13.40;9.70;;;;;;;-146.72;100.00;64895.28;5070888;28;20444;-72
2022/08/05 04:49:07;;;;;;;11.03;9.33;;;;;;;-146.72;100.00;64895.28;5054995;28;20436;-72
2022/08/05 04:51:41;;;;;;;14.77;11.20;;;;;;;-146.72;100.00;64895.28;5080110;28;20408;-72
2022/08/05 04:54:08;;;;;;;9.43;8.63;;;;;;;-146.72;100.00;64895.28;5083242;28;20501;-72
2022/08/05 04:56:37;;;;;;;12.33;10.93;;;;;;;-146.72;100.00;64895.28;5069555;28;20463;-72
2022/08/05 04:59:04;;;;;;;34.17;12.30;;;;;;;-146.72;100.00;64895.28;5073461;28;20464;-72
2022/08/05 05:01:52;;;;;;;36.43;14.73;;;;;;;-146.72;100.00;64895.28;5076564;28;20523;-72
2022/08/05 05:04:39;;;;;;;20.83;11.10;;;;;;;-146.72;100.00;64895.28;5060851;28;20519;-72
2022/08/05 05:07:14;;;;;;;21.17;12.20;;;;;;;-146.72;100.00;64895.28;5073408;28;20550;-72
2022/08/05 05:09:44;;;;;;;15.53;10.03;;;;;;;-146.72;100.00;64895.28;5073827;28;20467;-72
2022/08/05 05:12:11;;;;;;;10.97;9.87;;;;;;;-146.72;100.00;64895.28;5073576;28;20436;-72
2022/08/05 05:14:37;;;;;;;11.90;8.90;;;;;;;-146.72;100.00;64895.28;5061678;28;20438;-72
2022/08/05 05:17:17;;;;;;;11.80;8.80;;;;;;;-146.72;100.00;64895.28;5075303;28;20433;-72
2022/08/05 05:19:52;;;;;;;12.03;10.20;;;;;;;-146.72;100.00;64895.28;5058065;28;20562;-71
2022/08/05 05:22:20;;;;;;;20.57;10.93;;;;;;;-146.72;100.00;64895.28;5065019;28;20437;-71
2022/08/05 05:24:51;;;;;;;9.60;8.60;;;;;;;-146.72;100.00;64895.28;5085349;28;20447;-71
2022/08/05 05:27:29;;;;;;;24.20;11.67;;;;;;;-146.72;100.00;64895.28;5071530;28;20528;-71
2022/08/05 05:30:15;;;;;;;16.97;10.17;;;;;;;-146.72;100.00;64895.28;5061563;28;20412;-72
2022/08/05 05:33:00;;;;;;;13.90;12.43;;;;;;;-146.72;100.00;64895.28;5073103;28;21002;-72
2022/08/05 05:35:43;;;;;;;10.17;9.07;;;;;;;-146.72;100.00;64895.28;5080456;28;20420;-72
2022/08/05 05:38:10;;;;;;;10.80;8.80;;;;;;;-146.72;100.00;64895.28;5076272;28;20475;-72
2022/08/05 05:40:40;;;;;;;15.60;9.97;;;;;;;-146.72;100.00;64895.28;5076823;28;21081;-72
2022/08/05 05:43:15;;;;;;;11.87;10.00;;;;;;;-146.72;100.00;64895.28;5093559;28;20907;-72
2022/08/05 05:46:02;;;;;;;12.20;9.60;;;;;;;-146.72;100.00;64895.28;5093100;28;20435;-72
2022/08/05 05:48:30;;;;;;;10.87;9.77;;;;;;;-146.72;100.00;64895.28;5076593;28;21199;-72
2022/08/05 05:51:00;;;;;;;13.57;9.60;;;;;;;-146.72;100.00;64895.28;5093216;28;20468;-72
2022/08/05 05:53:40;;;;;;;9.80;8.77;;;;;;;-146.72;100.00;64895.28;5093205;28;20427;-72
2022/08/05 05:56:28;;;;;;;10.30;9.10;;;;;;;-146.72;100.00;64895.28;5063047;28;20518;-72
2022/08/05 05:59:05;;;;;;;12.80;9.73;;;;;;;-146.72;100.00;64895.28;5070125;28;20993;-72
2022/08/05 06:01:38;;;;;;;9.70;8.83;;;;;;;-146.72;100.00;64895.28;5072630;28;20432;-72
2022/08/05 06:04:11;;;;;;;10.50;8.13;;;;;;;-146.72;100.00;64895.28;5073842;28;20417;-72
2022/08/05 06:06:42;;;;;;;7.37;6.83;;;;;;;-146.72;100.00;64895.28;5072259;28;20522;-72
2022/08/05 06:09:15;;;;;;;8.17;7.57;;;;;;;-146.72;100.00;64895.28;5073835;28;20512;-72
2022/08/05 06:12:02;;;;;;;8.80;8.00;;;;;;;-146.72;100.00;64895.28;5072417;28;21011;-72
2022/08/05 06:14:30;;;;;;;9.90;8.90;;;;;;;-146.72;100.00;64895.28;5055794;28;20432;-72
2022/08/05 06:16:58;;;;;;;8.77;7.97;;;;;;;-146.72;100.00;64895.28;5073404;28;20476;-72
2022/08/05 06:19:28;;;;;;;9.50;7.83;;;;;;;-146.72;100.00;64895.28;5056164;28;20506;-72
2022/08/05 06:22:05;;;;;;;10.47;7.47;;;;;;;-146.72;100.00;64895.28;5057060;28;20436;-72
2022/08/05 06:24:40;;;;;;;8.97;8.07;;;;;;;-146.72;100.00;64895.28;5076813;28;20989;-72
2022/08/05 06:27:13;;;;;;;8.47;7.10;;;;;;;-146.72;100.00;64895.28;5084801;28;20518;-72
2022/08/05 06:30:01;;;;;;;7.30;6.60;;;;;;;-146.72;100.00;64895.28;5093699;28;20432;-72
2022/08/05 06:32:42;;;;;;;11.43;6.50;;;;;;;-146.72;100.00;64895.28;5074679;28;20486;-72
2022/08/05 06:35:12;;;;;;;10.30;6.07;;;;;;;-146.72;100.00;64895.28;5076607;28;20423;-72
2022/08/05 06:37:59;;;;;;;9.73;5.93;;;;;;;-146.72;100.00;64895.28;5092079;28;20551;-72
2022/08/05 06:40:37;;;;;;;8.00;6.37;;;;;;;-146.72;100.00;64895.28;5093496;28;20962;-72
2022/08/05 06:43:10;;;;;;;6.87;6.20;;;;;;;-146.72;100.00;64895.28;5092530;28;20790;-72
2022/08/05 06:45:57;;;;;;;6.00;5.60;;;;;;;-146.72;100.00;64895.28;5078113;28;20531;-72
2022/08/05 06:48:33;;;;;;;24.47;7.70;;;;;;;-146.72;100.00;64895.28;5076449;28;20439;-72
2022/08/05 06:51:21;;;;;;;36.60;11.63;;;;;;;-146.72;100.00;64895.28;5078040;28;20435;-72
2022/08/05 06:53:57;;;;;;;38.97;11.60;;;;;;;-146.72;100.00;64895.28;5091850;28;20424;-72
2022/08/05 06:56:24;;;;;;;38.50;9.37;;;;;;;-146.72;100.00;64895.28;5091632;28;20460;-72
2022/08/05 06:58:52;;;;;;;24.03;9.00;;;;;;;-146.72;100.00;64895.28;5092966;28;20464;-72
2022/08/05 07:01:19;;;;;;;24.07;7.97;;;;;;;-146.72;100.00;64895.28;5091801;28;20470;-72
2022/08/05 07:03:48;;;;;;;14.87;7.10;;;;;;;-146.72;100.00;64895.28;5074910;28;20438;-72
2022/08/05 07:06:15;;;;;;;10.93;6.30;;;;;;;-146.72;100.00;64895.28;5071149;28;20460;-72
2022/08/05 07:08:44;;;;;;;16.27;8.43;;;;;;;-146.72;100.00;64895.28;5055169;28;20939;-72
2022/08/05 07:11:17;;;;;;;8.53;6.17;;;;;;;-146.72;100.00;64895.28;5071257;28;20437;-72
2022/08/05 07:16:59;;;;;;;7.90;6.13;;;;;;;-146.72;100.00;64895.28;5087878;28;20460;-73
2022/08/05 07:19:46;;;;;;;6.30;5.70;;;;;;;-146.72;100.00;64895.28;5057244;28;20468;-72
2022/08/05 07:22:32;;;;;;;5.27;4.87;;;;;;;-146.72;100.00;64895.28;5071090;28;20444;-72
2022/08/05 07:25:00;;;;;;;6.50;6.03;;;;;;;-146.72;100.00;64895.28;5088507;28;20807;-72
2022/08/05 07:27:52;;;;;;;6.20;5.77;;;;;;;-146.72;100.00;64895.28;5049244;28;20548;-72
2022/08/05 07:30:26;;;;;;;5.40;5.00;;;;;;;-146.72;100.00;64895.28;5064897;28;20844;-73
2022/08/05 07:33:01;;;;;;;5.73;5.23;;;;;;;-146.72;100.00;64895.28;5091100;28;20436;-72
2022/08/05 07:35:34;;;;;;;5.43;4.93;;;;;;;-146.72;100.00;64895.28;5075150;28;20517;-72
2022/08/05 07:38:21;;;;;;;4.80;4.50;;;;;;;-146.72;100.00;64895.28;5057628;28;21136;-72
2022/08/05 07:41:02;;;;;;;5.47;4.80;;;;;;;-146.72;100.00;64895.28;5071513;28;20952;-72
2022/08/05 07:43:49;;;;;;;5.00;4.60;;;;;;;-146.72;100.00;64895.28;5071708;28;20462;-72
2022/08/05 07:46:16;;;;;;;6.03;5.23;;;;;;;-146.72;100.00;64895.28;5072445;28;20456;-72
2022/08/05 07:48:52;;;;;;;5.30;4.90;;;;;;;-146.72;100.00;64895.28;5070567;28;20432;-72
2022/08/05 07:51:36;;;;;;;9.73;4.87;;;;;;;-146.72;100.00;64895.28;5070850;28;20478;-72
2022/08/05 07:54:07;;;;;;;5.13;4.70;;;;;;;-146.72;100.00;64895.28;5054496;28;20447;-72
2022/08/05 07:56:37;;;;;;;5.90;5.17;;;;;;;-146.72;100.00;64895.28;5087238;28;20975;-72
2022/08/05 07:59:23;;;;;;;5.80;5.40;;;;;;;-146.72;100.00;64895.28;5058435;28;21005;-73
2022/08/05 08:02:08;;;;;;;5.57;5.07;;;;;;;-146.72;100.00;64895.28;5059331;28;20443;-73
2022/08/05 08:04:43;;;;;;;9.33;5.70;;;;;;;-146.72;100.00;64895.28;5090778;28;20423;-73
2022/08/05 08:07:11;;;;;;;5.73;5.13;;;;;;;-146.72;100.00;64895.28;5073108;28;20460;-73
2022/08/05 08:09:38;;;;;;;6.93;5.10;;;;;;;-146.72;100.00;64895.28;5070183;28;20436;-73
2022/08/05 08:12:05;;;;;;;6.43;5.83;;;;;;;-146.72;100.00;64895.28;5070101;28;20444;-73
2022/08/05 08:14:52;;;;;;;6.53;6.03;;;;;;;-146.72;100.00;64895.28;5051633;28;20441;-73
2022/08/05 08:17:20;;;;;;;8.03;7.00;;;;;;;-146.72;100.00;64895.28;5070385;28;20464;-73
2022/08/05 08:19:47;;;;;;;10.43;6.67;;;;;;;-146.72;100.00;64895.28;5069916;28;20514;-73
2022/08/05 08:22:34;;;;;;;6.57;5.80;;;;;;;-146.72;100.00;64895.28;5056275;28;20433;-73
2022/08/05 08:25:01;;;;;;;7.37;5.47;;;;;;;-146.72;100.00;64895.28;5071306;28;20490;-73
2022/08/05 08:27:30;;;;;;;5.70;5.30;;;;;;;-146.72;100.00;64895.28;5070046;28;20467;-73
2022/08/05 08:30:10;;;;;;;8.13;5.63;;;;;;;-146.72;100.00;64895.28;5069973;28;20424;-73
2022/08/05 08:32:55;;;;;;;7.17;6.57;;;;;;;-146.72;100.00;64895.28;5071184;28;20514;-73
2022/08/05 08:35:23;;;;;;;6.07;5.50;;;;;;;-146.72;100.00;64895.28;5073894;28;20477;-73
2022/08/05 08:37:52;;;;;;;5.97;5.10;;;;;;;-146.72;100.00;64895.28;5056587;28;20459;-73
2022/08/05 08:40:22;;;;;;;5.40;5.00;;;;;;;-146.72;100.00;64895.28;5068948;28;21021;-73
2022/08/05 08:42:51;;;;;;;6.47;4.20;;;;;;;-146.72;100.00;64895.28;5086602;28;20440;-73
2022/08/05 08:45:20;;;;;;;8.23;5.83;;;;;;;-146.72;100.00;64895.28;5086611;28;20463;-73
2022/08/05 08:47:59;;;;;;;5.97;5.47;;;;;;;-146.72;100.00;64895.28;5069677;28;20464;-73
2022/08/05 08:50:48;;;;;;;6.13;5.33;;;;;;;-146.72;100.00;64895.28;5055863;28;20440;-73
2022/08/05 08:53:36;;;;;;;7.80;5.53;;;;;;;-146.72;100.00;64895.28;5069739;28;20432;-73
2022/08/05 08:56:09;;;;;;;4.80;4.40;;;;;;;-146.72;100.00;64895.28;5057525;28;20603;-73
2022/08/05 08:58:36;;;;;;;9.03;4.50;;;;;;;-146.72;100.00;64895.28;5087902;28;20555;-74
2022/08/05 09:01:13;;;;;;;5.10;4.47;;;;;;;-146.72;100.00;64895.28;5090266;28;20818;-74
2022/08/05 09:03:52;;;;;;;7.27;5.20;;;;;;;-146.72;100.00;64895.28;5091341;28;20853;-74
2022/08/05 09:06:27;;;;;;;5.63;5.13;;;;;;;-146.72;100.00;64895.28;5089769;28;20486;-74
2022/08/05 09:08:58;;;;;;;6.90;4.40;;;;;;;-146.72;100.00;64895.28;5089830;28;20416;-74
2022/08/05 09:11:26;;;;;;;6.00;5.10;;;;;;;-146.72;100.00;64895.28;5089694;28;20475;-74
2022/08/05 09:14:13;;;;;;;5.17;4.07;;;;;;;-146.72;100.00;64895.28;5091092;28;20538;-74
2022/08/05 09:17:00;;;;;;;4.97;4.40;;;;;;;-146.72;100.00;64895.28;5075594;28;20463;-74
2022/08/05 09:19:29;;;;;;;7.10;4.47;;;;;;;-146.72;100.00;64895.28;5090746;28;20459;-74
2022/08/05 09:22:16;;;;;;;5.67;4.17;;;;;;;-146.72;100.00;64895.28;5069328;28;20443;-74
2022/08/05 09:25:01;;;;;;;4.83;3.53;;;;;;;-146.72;100.00;64895.28;5054349;28;20486;-74
2022/08/05 09:27:47;;;;;;;3.90;3.50;;;;;;;-146.72;100.00;64895.28;5070571;28;20539;-74
2022/08/05 09:30:33;;;;;;;3.97;3.50;;;;;;;-146.72;100.00;64895.28;5069331;28;20432;-75
2022/08/05 09:33:01;;;;;;;4.90;3.10;;;;;;;-146.72;100.00;64895.28;5069234;28;21314;-74
2022/08/05 09:35:30;;;;;;;7.50;3.47;;;;;;;-146.72;100.00;64895.28;5075276;28;20425;-74
2022/08/05 09:37:58;;;;;;;3.07;2.87;;;;;;;-146.72;100.00;64895.28;5072822;28;20470;-74
2022/08/05 09:40:44;;;;;;;4.47;3.83;;;;;;;-146.72;100.00;64895.28;5075237;28;20451;-74
2022/08/05 09:43:37;;;;;;;3.57;3.23;;;;;;;-146.72;100.00;64895.28;5089449;28;20930;-74
2022/08/05 09:46:40;;;;;;;3.07;2.80;;;;;;;-146.72;100.00;64895.28;5089315;28;20436;-74
2022/08/05 09:49:23;;;;;;;3.53;3.10;;;;;;;-146.72;100.00;64895.28;5077067;28;20977;-74
2022/08/05 09:52:16;;;;;;;3.63;3.33;;;;;;;-146.72;100.00;64895.28;5079682;28;20452;-74
2022/08/05 09:54:55;;;;;;;3.43;3.10;;;;;;;-146.72;100.00;64895.28;5081515;28;20484;-74
2022/08/05 09:57:39;;;;;;;4.70;3.50;;;;;;;-146.72;100.00;64895.28;5079577;28;20459;-74
2022/08/05 10:00:15;;;;;;;3.37;2.80;;;;;;;-146.72;100.00;64895.28;5093391;28;20451;-74
2022/08/05 10:02:45;;;;;;;3.27;3.00;;;;;;;-146.72;100.00;64895.28;5067535;28;20435;-74
2022/08/05 10:05:16;;;;;;;3.07;2.87;;;;;;;-146.72;100.00;64895.28;5081045;28;20504;-74
2022/08/05 10:07:57;;;;;;;3.27;2.97;;;;;;;-146.72;100.00;64895.28;5076567;28;20463;-74
2022/08/05 10:10:43;;;;;;;3.43;3.10;;;;;;;-146.72;100.00;64895.28;5079257;28;20788;-74
2022/08/05 10:13:32;;;;;;;3.10;2.90;;;;;;;-146.72;100.00;64895.28;5094144;28;20423;-74
2022/08/05 10:16:34;;;;;;;3.93;3.40;;;;;;;-146.72;100.00;64895.28;5078337;28;20430;-74
2022/08/05 10:19:18;;;;;;;5.10;3.63;;;;;;;-146.72;100.00;64895.28;5094624;28;20447;-74
2022/08/05 10:21:58;;;;;;;5.23;3.50;;;;;;;-146.72;100.00;64895.28;5087329;28;20447;-74
2022/08/05 10:24:25;;;;;;;6.80;3.97;;;;;;;-146.72;100.00;64895.28;5072588;28;20436;-74
2022/08/05 10:26:55;;;;;;;3.57;3.27;;;;;;;-146.72;100.00;64895.28;5069303;28;20479;-74
2022/08/05 10:29:28;;;;;;;3.50;3.20;;;;;;;-146.72;100.00;64895.28;5086761;28;20439;-74
2022/08/05 10:32:15;;;;;;;3.30;3.00;;;;;;;-146.72;100.00;64895.28;5082519;28;20529;-74
2022/08/05 10:35:02;;;;;;;4.00;3.70;;;;;;;-146.72;100.00;64895.28;5093773;28;20514;-74
2022/08/05 10:37:31;;;;;;;7.10;3.23;;;;;;;-146.72;100.00;64895.28;5078770;28;20456;-74
2022/08/05 10:40:20;;;;;;;3.33;3.00;;;;;;;-146.72;100.00;64895.28;5068325;28;20812;-74
2022/08/05 10:43:00;;;;;;;2.67;2.50;;;;;;;-146.72;100.00;64895.28;5085564;28;20430;-75
2022/08/05 10:45:27;;;;;;;3.20;2.97;;;;;;;-146.72;100.00;64895.28;5084354;28;20482;-75
2022/08/05 10:48:44;;;;;;;3.40;3.10;;;;;;;-146.72;100.00;64895.28;5059082;28;20539;-75
2022/08/05 10:51:24;;;;;;;2.90;2.70;;;;;;;-146.72;100.00;64895.28;5066714;28;20451;-75
2022/08/05 10:53:59;;;;;;;3.83;2.93;;;;;;;-146.72;100.00;64895.28;5060726;28;20444;-74
2022/08/05 10:56:52;;;;;;;3.27;3.07;;;;;;;-146.72;100.00;64895.28;5084015;28;20533;-75
2022/08/05 10:59:25;;;;;;;3.63;2.90;;;;;;;-146.72;100.00;64895.28;5086967;28;20429;-75
2022/08/05 11:02:13;;;;;;;3.60;2.80;;;;;;;-146.72;100.00;64895.28;5071986;28;20427;-75
2022/08/05 11:05:07;;;;;;;2.87;2.57;;;;;;;-146.72;100.00;64895.28;5088477;28;20425;-75
2022/08/05 11:07:58;;;;;;;4.10;2.57;;;;;;;-146.72;100.00;64895.28;5066446;28;20463;-75
2022/08/05 11:10:36;;;;;;;2.17;2.07;;;;;;;-146.72;100.00;64895.28;5086187;28;20429;-75
2022/08/05 11:13:05;;;;;;;4.20;2.70;;;;;;;-146.72;100.00;64895.28;5083927;28;20436;-76
2022/08/05 11:15:38;;;;;;;3.93;2.97;;;;;;;-146.72;100.00;64895.28;5078162;28;20419;-75
2022/08/05 11:18:28;;;;;;;2.60;2.40;;;;;;;-146.72;100.00;64895.28;5077636;28;20977;-75
2022/08/05 11:20:58;;;;;;;3.07;2.73;;;;;;;-146.72;100.00;64895.28;5080397;28;20484;-75
2022/08/05 11:23:40;;;;;;;3.80;2.93;;;;;;;-146.72;100.00;64895.28;5084722;28;20455;-75
2022/08/05 11:26:27;;;;;;;3.50;2.97;;;;;;;-146.72;100.00;64895.28;5057294;28;20488;-75
2022/08/05 11:29:04;;;;;;;2.30;2.10;;;;;;;-146.72;100.00;64895.28;5070956;28;20476;-74
2022/08/05 11:31:43;;;;;;;2.40;2.20;;;;;;;-146.72;100.00;64895.28;5084671;28;20447;-74
2022/08/05 11:34:36;;;;;;;2.87;2.60;;;;;;;-146.72;100.00;64895.28;5081312;28;20520;-74
2022/08/05 11:37:03;;;;;;;4.17;2.90;;;;;;;-146.72;100.00;64895.28;5080983;28;21331;-74
2022/08/05 11:39:50;;;;;;;3.13;2.80;;;;;;;-146.72;100.00;64895.28;5077081;28;20505;-75
2022/08/05 11:42:32;;;;;;;2.70;2.50;;;;;;;-146.72;100.00;64895.28;5074883;28;20957;-74
2022/08/05 11:45:07;;;;;;;3.93;2.70;;;;;;;-146.72;100.00;64895.28;5070951;28;21241;-75
2022/08/05 11:47:49;;;;;;;3.20;2.67;;;;;;;-146.72;100.00;64895.28;5056181;28;20490;-75
2022/08/05 11:50:20;;;;;;;3.83;2.63;;;;;;;-146.72;100.00;64895.28;5070716;28;20419;-75
2022/08/05 11:52:47;;;;;;;3.73;3.30;;;;;;;-146.72;100.00;64895.28;5070696;28;20428;-75